Reklama

Seznam meteostanic a jejich METAR

Vyhledat místa podle abecedy:
A B C D E F G H I J K L M N O P Q R S T U V W X Y Z

Filtrovat:

ID stanice:
a/nebo
Název místa (fulltext):
 
Místo (ID)Naposledy načteno 
Náměšť nad Oslavou (Namest n/O) 19.11.2018 01:00 UTC Zobrazit data
Místo: Náměšť nad Oslavou
Teplota: -1 °C (pocitová: -9.8 °C)
Vítr: 4 m/s z(e) 30°
Počasí: sněží
Dohlednost: 4800 m
Zákl. oblačnosti: 5/8 1080 m;8/8 2100 m
Vlhkost: 86%
N'Djamena (FTTJ) 19.11.2018 01:00 UTC Zobrazit METAR
FTTJ 190100Z 01006KT CAVOK 23/04 Q1010 NOSIG
Nairobi (HKJK) 19.11.2018 01:00 UTC Zobrazit METAR
HKJK 190100Z 05005KT 9999 BKN018 17/15 Q1021 NOSIG
Nantes/ Atlantique (LFRS) 19.11.2018 01:00 UTC Zobrazit METAR
LFRS 190100Z AUTO 06010KT CAVOK 03/00 Q1014 NOSIG
Nassau (MYNN) 19.11.2018 01:00 UTC Zobrazit METAR
MYNN 190100Z 11004KT 9999 SCT020 25/20 A3009
Nauru (ANAU) Zatím nenačteno  
Nausori (NFNA) 19.11.2018 01:00 UTC Zobrazit METAR
NFNA 190100Z 04009KT 9999 SCT022 29/21 Q1007
New York (KNYC) 19.11.2018 00:51 UTC Zobrazit METAR
KNYC 190051Z AUTO 10SM OVC030 06/M01 A3029 RMK AO2 SLP248 T00611006 $
Newcastle (EGNT) 19.11.2018 00:50 UTC Zobrazit METAR
EGNT 190050Z 08004KT 9999 FEW028 06/05 Q1031
Niamey (DRRN) 19.11.2018 01:00 UTC Zobrazit METAR
DRRN 190100Z 16003KT 3500 DU NSC 24/04 Q1011 NOSIG
Nice/ Cote D'Azur (LFMN) 19.11.2018 01:00 UTC Zobrazit METAR
LFMN 190100Z 33009KT 9999 FEW060 07/M00 Q1010 NOSIG
Niue Island (NIUE) 18.11.2018 20:00 UTC Zobrazit METAR
NIUE 182000Z 05005KT 9999 FEW018 SCT030 28/22 Q1010
Nizhny Novgorod (UWGG) 13.10.2017 15:00 UTC Zobrazit METAR
UWGG 131500Z 9000 NSC 10/07 Q1006 R18R/290050 NOSIG RMK QFE747
North Caicos I. (MBNC) Zatím nenačteno  
Nouakchott (GQNN) 23.06.2016 11:00 UTC Zobrazit METAR
GQNN 231100Z 23009KT 180V250 7000 BKN010 25/18 Q1013 NOSIG
Noumea (NWWM) Zatím nenačteno  
Nuku'alofa (NFTF) 18.11.2018 20:00 UTC Zobrazit METAR
NFTF 182000Z 35008KT 9999 SCT017 26/20 Q1010
Reklama

Počasí na Váš email

Emaily jsou bez reklamy a bez spamu



Odhlásit newsletter

Reklama


Lunární kalendář

  • 23.11.
  • 30.11.
  • 07.12.
  • 15.12.



Reklama


Reklama
Povinné ručení
Reklama



Reklama